I23 weather

Fayette County Airport
Washington Court House, Ohio, United States

Public forecast

Using degrees Fahrenheit for public forecast. Weather courtesy of forecast.io.

Closest aviation weather report (METAR) to Fayette County Airport

Closest report is Wilmington Airpark, 19.2 nm (35.6 km) WSW. Retrieved 2020/06/04 01:18 UTC (4 minutes ago):

KILN 040118Z AUTO 16008KT 3SM -TSRA BR FEW038 BKN050 OVC085 20/19 A2986 RMK AO2 LTG DSNT ALQDS P0023 T02000189

Closest aviation forecast (TAF) to Fayette County Airport

Closest forecast is Wilmington Airpark, 19.2 nm (35.6 km) WSW. Retrieved 2020-06-04 00:51 UTC (31 minutes ago):

TAF KILN 032348Z 0400/0424 28010KT P6SM VCTS BKN040CB TEMPO 0400/0402 4SM TSRA OVC035CB FM040300 24005KT P6SM BKN035 FM040700 23004KT P6SM VCSH BKN050 FM041400 25010KT P6SM BKN100 FM041700 24010KT P6SM VCTS BKN035CB FM042200 23007KT P6SM VCSH BKN035